KABE

Lehigh Valley International Airport

Allentown, Pennsylvania, USA
METAR KABE 221451Z 34012KT 10SM CLR 19/09 A3017 RMK AO2 SLP214 T01940094 53021
Observed Flight Rules
Sep-22 @ 14:51 UTC (10 minutes ago) Visual Flight Rules
Wind Visibility Clouds
340° at 12 knots 10 miles
Temperatures Readings
Current 19°C / 66°F
Dewpoint 9°C / 48°F
Humidity 52%
Altimeter 30.17" Hg
Pressure 1021.4 hPa
Elevation 114
METAR KABE 221451Z 34012KT 10SM CLR 19/09 A3017 RMK AO2 SLP214 T01940094 53021
Observed Flight Rules
Sep-22 @ 14:51 UTC
(10 minutes ago)
VFR
Wind Visibility
340° at 12 knots 10 miles
Clouds
Temperature Dewpoint
19°C / 66°F 9°C / 48°F
Humidity Altimeter Pressure
52% 30.17" Hg 1021.4 hPa